createdAt,value
2022-10-28T00:02:27.042Z,73.80
2022-10-28T00:04:55.104Z,74.30
2022-10-28T00:07:24.527Z,73.90
2022-10-28T00:09:52.788Z,73.90
2022-10-28T00:12:20.703Z,73.80
2022-10-28T00:14:48.581Z,73.20
2022-10-28T00:17:16.493Z,73.20
2022-10-28T00:19:44.385Z,73.80
2022-10-28T00:22:12.338Z,73.60
2022-10-28T00:24:41.577Z,73.80
2022-10-28T00:27:09.449Z,74.40
2022-10-28T00:29:37.318Z,73.80
2022-10-28T00:32:05.354Z,73.10
2022-10-28T00:34:33.199Z,72.40
2022-10-28T00:37:01.053Z,72.40
2022-10-28T00:39:29.008Z,71.50
2022-10-28T00:41:58.779Z,71.30
2022-10-28T00:44:44.698Z,70.80
2022-10-28T00:47:14.135Z,70.10
2022-10-28T00:49:41.989Z,70.10
2022-10-28T00:52:11.531Z,70.10
2022-10-28T00:54:39.569Z,68.80
2022-10-28T00:57:09.910Z,69.70
2022-10-28T00:59:39.019Z,69.90
2022-10-28T01:02:07.173Z,69.90
2022-10-28T01:04:35.152Z,69.60
2022-10-28T01:07:03.038Z,70.50
2022-10-28T01:09:31.178Z,70.00
2022-10-28T01:12:01.120Z,69.10
2022-10-28T01:14:33.663Z,69.30
2022-10-28T01:17:05.935Z,69.30
2022-10-28T01:19:43.207Z,70.00
2022-10-28T01:22:15.639Z,70.10
2022-10-28T01:24:48.291Z,69.30
2022-10-28T01:27:21.250Z,69.60
2022-10-28T01:30:04.078Z,69.60
2022-10-28T01:32:34.340Z,69.40
2022-10-28T01:35:05.870Z,71.40
2022-10-28T01:37:34.112Z,71.50
2022-10-28T01:40:03.899Z,72.80
2022-10-28T01:42:32.289Z,71.70
2022-10-28T01:45:02.389Z,73.30
2022-10-28T01:47:30.660Z,73.10
2022-10-28T01:50:00.293Z,71.40
2022-10-28T01:52:28.826Z,71.20
2022-10-28T01:54:59.223Z,70.20
2022-10-28T01:57:27.125Z,71.90
2022-10-28T01:59:54.981Z,71.70
2022-10-28T02:02:22.868Z,70.90
2022-10-28T02:04:50.734Z,71.10
2022-10-28T02:07:19.996Z,71.70
2022-10-28T02:09:52.915Z,71.80
2022-10-28T02:12:21.997Z,72.10
2022-10-28T02:14:54.174Z,72.40
2022-10-28T02:17:22.707Z,72.10
2022-10-28T02:19:51.990Z,72.00
2022-10-28T02:22:21.833Z,71.40
2022-10-28T02:24:51.790Z,72.00
2022-10-28T02:27:31.885Z,72.70
2022-10-28T02:30:01.680Z,72.20
2022-10-28T02:32:29.762Z,72.80
2022-10-28T02:34:58.141Z,72.80
2022-10-28T02:37:28.008Z,72.50
2022-10-28T02:39:56.620Z,71.50
2022-10-28T02:42:25.363Z,71.50
2022-10-28T02:44:54.278Z,72.30
2022-10-28T02:47:22.789Z,72.10
2022-10-28T02:49:51.626Z,73.10
2022-10-28T02:52:19.584Z,73.40
2022-10-28T02:54:51.259Z,74.00
2022-10-28T02:57:19.670Z,73.90
2022-10-28T02:59:52.518Z,73.20
2022-10-28T03:02:20.394Z,71.80
2022-10-28T03:04:48.272Z,71.60
2022-10-28T03:07:16.126Z,72.40
2022-10-28T03:09:43.985Z,71.80
2022-10-28T03:12:13.298Z,72.90
2022-10-28T03:14:41.138Z,73.20
2022-10-28T03:17:10.033Z,73.40
2022-10-28T03:19:37.950Z,73.10
2022-10-28T03:22:05.914Z,73.60
2022-10-28T03:24:33.780Z,73.30
2022-10-28T03:27:01.653Z,73.20
2022-10-28T03:29:30.892Z,73.90
2022-10-28T03:31:58.760Z,72.40
2022-10-28T03:34:26.620Z,72.30
2022-10-28T03:36:54.499Z,72.00
2022-10-28T03:39:22.392Z,71.40
2022-10-28T03:41:50.285Z,71.00
2022-10-28T03:44:18.201Z,71.20
2022-10-28T03:46:47.434Z,69.90
2022-10-28T03:49:15.285Z,69.40
2022-10-28T03:51:43.388Z,69.60
2022-10-28T03:54:11.224Z,70.00
2022-10-28T03:56:40.595Z,69.50
2022-10-28T03:59:09.669Z,69.40
2022-10-28T04:01:37.666Z,69.70
2022-10-28T04:04:08.919Z,70.50
2022-10-28T04:06:36.814Z,70.40
2022-10-28T04:09:04.774Z,70.20
2022-10-28T04:11:32.660Z,69.30
2022-10-28T04:14:00.574Z,68.80
2022-10-28T04:16:28.454Z,69.20
2022-10-28T04:18:56.312Z,69.30
2022-10-28T04:21:25.624Z,69.60
2022-10-28T04:23:53.454Z,69.20
2022-10-28T04:26:21.381Z,68.80
2022-10-28T04:28:49.213Z,67.80
2022-10-28T04:31:17.117Z,68.20
2022-10-28T04:33:44.985Z,69.30
2022-10-28T04:36:12.967Z,69.00
2022-10-28T04:38:42.293Z,68.70
2022-10-28T04:41:10.275Z,69.40
2022-10-28T04:43:38.316Z,69.80
2022-10-28T04:46:06.465Z,69.30
2022-10-28T04:48:34.333Z,68.90
2022-10-28T04:51:02.321Z,68.40
2022-10-28T04:53:30.326Z,69.50
2022-10-28T04:55:59.790Z,69.60
2022-10-28T04:58:27.994Z,69.90
2022-10-28T05:00:56.082Z,69.40
2022-10-28T05:03:24.249Z,68.70
2022-10-28T05:05:52.159Z,68.70
2022-10-28T05:08:19.997Z,68.00
2022-10-28T05:10:50.143Z,68.90
2022-10-28T05:13:19.436Z,68.40
2022-10-28T05:15:48.669Z,69.10
2022-10-28T05:18:16.532Z,68.60
2022-10-28T05:20:44.902Z,67.80
2022-10-28T05:23:12.807Z,68.00
2022-10-28T05:25:40.982Z,68.10
2022-10-28T05:28:09.036Z,68.00
2022-10-28T05:30:39.047Z,67.70
2022-10-28T05:33:06.896Z,67.80
2022-10-28T05:35:34.809Z,67.90
2022-10-28T05:38:04.257Z,67.60
2022-10-28T05:40:32.769Z,67.90
2022-10-28T05:43:00.663Z,68.30
2022-10-28T05:47:58.908Z,68.10
2022-10-28T05:50:26.855Z,67.90
2022-10-28T05:52:55.225Z,69.50
2022-10-28T05:55:23.473Z,69.20
2022-10-28T05:57:51.875Z,69.00
2022-10-28T06:00:20.688Z,68.90
2022-10-28T06:02:48.553Z,70.50
2022-10-28T06:05:17.807Z,69.40
2022-10-28T06:07:45.671Z,71.10
2022-10-28T06:10:13.588Z,71.20
2022-10-28T06:12:39.901Z,71.50
2022-10-28T06:15:08.300Z,70.80
2022-10-28T06:17:36.151Z,71.50
2022-10-28T06:20:04.574Z,72.20
2022-10-28T06:22:33.850Z,71.30
2022-10-28T06:25:01.744Z,72.30
2022-10-28T06:27:29.595Z,73.20
2022-10-28T06:29:57.515Z,72.50
2022-10-28T06:32:25.360Z,71.80
2022-10-28T06:34:53.247Z,71.00
2022-10-28T06:37:21.282Z,69.90
2022-10-28T06:39:52.166Z,70.40
2022-10-28T06:42:21.616Z,70.30
2022-10-28T06:44:50.726Z,69.80
2022-10-28T06:47:20.576Z,70.20
2022-10-28T06:49:48.882Z,70.00
2022-10-28T06:52:16.755Z,69.80
2022-10-28T06:54:44.700Z,69.10
2022-10-28T06:57:13.919Z,68.80
2022-10-28T06:59:42.165Z,68.70
2022-10-28T07:02:10.917Z,69.20
2022-10-28T07:04:38.916Z,69.80
2022-10-28T07:07:06.775Z,70.00
2022-10-28T07:09:36.601Z,69.00
2022-10-28T07:12:05.622Z,69.30
2022-10-28T07:14:35.932Z,62.90
2022-10-28T07:17:03.791Z,64.90
2022-10-28T07:19:31.676Z,61.50
2022-10-28T07:21:59.557Z,57.80
2022-10-28T07:27:00.573Z,66.90
2022-10-28T07:29:28.465Z,67.00
2022-10-28T07:31:57.667Z,66.40
2022-10-28T07:34:27.256Z,66.90
2022-10-28T07:36:55.673Z,66.60
2022-10-28T07:39:23.605Z,66.20
2022-10-28T07:41:51.500Z,66.70
2022-10-28T07:44:19.381Z,66.10
2022-10-28T07:46:47.287Z,66.70
2022-10-28T07:49:17.578Z,66.40
2022-10-28T07:51:45.431Z,67.80
2022-10-28T07:54:13.277Z,68.90
2022-10-28T07:56:41.138Z,69.60
2022-10-28T07:59:09.026Z,69.80
2022-10-28T08:01:36.989Z,69.10
2022-10-28T08:04:04.975Z,67.80
2022-10-28T08:06:34.445Z,70.60
2022-10-28T08:09:02.281Z,70.00
2022-10-28T08:11:30.155Z,68.10
2022-10-28T08:13:58.002Z,67.00
2022-10-28T08:16:26.786Z,66.80
2022-10-28T08:18:54.653Z,67.00
2022-10-28T08:21:22.519Z,67.80
2022-10-28T08:23:51.747Z,69.20
2022-10-28T08:26:19.633Z,68.40
2022-10-28T08:28:48.296Z,67.20
2022-10-28T08:31:16.156Z,67.30
2022-10-28T08:33:44.436Z,66.30
2022-10-28T08:36:12.896Z,67.20
2022-10-28T08:38:45.258Z,67.00
2022-10-28T08:41:22.591Z,67.10
2022-10-28T08:43:57.594Z,68.30
2022-10-28T08:46:28.071Z,68.10
2022-10-28T08:48:55.898Z,66.90
2022-10-28T08:51:24.058Z,67.90
2022-10-28T08:53:53.726Z,67.20
2022-10-28T08:56:25.555Z,66.50
2022-10-28T08:58:54.769Z,65.80
2022-10-28T09:01:24.362Z,65.60
2022-10-28T09:03:53.327Z,65.20
2022-10-28T09:06:21.632Z,65.30
2022-10-28T09:08:49.816Z,64.80
2022-10-28T09:11:26.285Z,64.70
2022-10-28T09:14:00.314Z,66.10
2022-10-28T09:16:30.776Z,66.60
2022-10-28T09:18:59.173Z,66.90
2022-10-28T09:21:29.976Z,67.00
2022-10-28T09:23:58.213Z,66.10
2022-10-28T09:26:29.455Z,67.00
2022-10-28T09:29:00.583Z,66.70
2022-10-28T09:31:30.026Z,66.00
2022-10-28T09:34:01.549Z,65.50
2022-10-28T09:36:30.229Z,65.80
2022-10-28T09:38:58.393Z,65.50
2022-10-28T09:41:26.899Z,66.80
2022-10-28T09:43:54.990Z,66.30
2022-10-28T09:46:24.470Z,67.50
2022-10-28T09:48:52.484Z,66.10
2022-10-28T09:51:23.738Z,65.30
2022-10-28T09:53:52.056Z,66.20
2022-10-28T09:56:19.951Z,65.10
2022-10-28T09:58:47.905Z,65.50
2022-10-28T10:01:15.838Z,66.00
2022-10-28T10:03:46.013Z,66.70
2022-10-28T10:06:14.814Z,66.20
2022-10-28T10:08:42.781Z,66.00
2022-10-28T10:11:13.300Z,66.40
2022-10-28T10:13:42.432Z,66.60
2022-10-28T10:16:12.877Z,65.50
2022-10-28T10:18:42.334Z,64.80
2022-10-28T10:21:11.678Z,64.10
2022-10-28T10:26:12.846Z,63.60
2022-10-28T10:28:42.990Z,63.40
2022-10-28T10:31:17.545Z,63.80
2022-10-28T10:33:45.394Z,63.70
2022-10-28T10:36:15.802Z,62.70
2022-10-28T10:38:47.664Z,61.30
2022-10-28T10:41:16.902Z,60.70
2022-10-28T10:43:44.856Z,60.90
2022-10-28T10:46:15.003Z,61.20
2022-10-28T10:48:42.976Z,60.60
2022-10-28T10:51:13.255Z,55.90
2022-10-28T10:53:42.540Z,58.60
2022-10-28T10:56:10.867Z,61.80
2022-10-28T10:58:38.889Z,61.10
2022-10-28T11:01:07.394Z,61.50
2022-10-28T11:03:36.886Z,61.90
2022-10-28T11:06:22.618Z,61.90
2022-10-28T11:08:55.316Z,60.80
2022-10-28T11:11:23.493Z,61.00
2022-10-28T11:14:03.262Z,61.20
2022-10-28T11:16:31.196Z,60.30
2022-10-28T11:18:59.060Z,59.80
2022-10-28T11:21:43.202Z,58.00
2022-10-28T11:24:22.299Z,56.90
2022-10-28T11:26:51.411Z,55.90
2022-10-28T11:29:19.331Z,54.70
2022-10-28T11:31:51.192Z,55.80
2022-10-28T11:34:25.699Z,53.90
2022-10-28T11:36:55.186Z,53.60
2022-10-28T11:39:25.380Z,52.50
2022-10-28T11:41:59.885Z,53.40
2022-10-28T11:44:31.131Z,53.80
2022-10-28T11:47:04.223Z,53.30
2022-10-28T11:49:41.497Z,54.00
2022-10-28T11:52:13.891Z,56.60
2022-10-28T11:54:46.508Z,57.20
2022-10-28T11:57:14.718Z,55.70
2022-10-28T12:00:01.751Z,55.70
2022-10-28T12:02:35.498Z,56.60
2022-10-28T12:05:04.646Z,56.70
2022-10-28T12:07:36.898Z,56.30
2022-10-28T12:10:11.380Z,57.50
2022-10-28T12:12:41.304Z,57.60
2022-10-28T12:15:12.795Z,55.70
2022-10-28T12:17:41.539Z,56.20
2022-10-28T12:20:10.895Z,57.90
2022-10-28T12:22:41.153Z,56.60
2022-10-28T12:25:14.342Z,55.90
2022-10-28T12:27:42.906Z,56.70
2022-10-28T12:30:15.867Z,55.80
2022-10-28T12:32:43.705Z,54.00
2022-10-28T12:35:14.616Z,53.30
2022-10-28T12:37:46.158Z,53.00
2022-10-28T12:40:18.846Z,54.40
2022-10-28T12:42:47.041Z,53.20
2022-10-28T12:45:15.556Z,53.20
2022-10-28T12:47:44.178Z,52.10
2022-10-28T12:50:14.478Z,51.40
2022-10-28T12:52:44.897Z,51.20
2022-10-28T12:55:19.274Z,52.20
2022-10-28T12:57:48.333Z,52.00
2022-10-28T13:00:17.743Z,51.80
2022-10-28T13:02:48.092Z,51.70
2022-10-28T13:05:17.452Z,51.20
2022-10-28T13:07:51.570Z,50.10
2022-10-28T13:10:25.532Z,50.70
2022-10-28T13:13:09.459Z,50.90
2022-10-28T13:15:46.963Z,51.30
2022-10-28T13:18:24.984Z,49.70
2022-10-28T13:20:53.908Z,50.00
2022-10-28T13:23:23.622Z,50.00
2022-10-28T13:25:57.073Z,51.40
2022-10-28T13:28:25.124Z,50.10
2022-10-28T13:30:53.508Z,49.60
2022-10-28T13:33:22.805Z,50.10
2022-10-28T13:35:51.006Z,49.90
2022-10-28T13:38:21.725Z,49.30
2022-10-28T13:41:08.226Z,48.50
2022-10-28T13:43:50.915Z,47.90
2022-10-28T13:46:33.675Z,49.20
2022-10-28T13:49:16.588Z,49.00
2022-10-28T13:51:48.696Z,49.10
2022-10-28T13:54:26.228Z,48.70
2022-10-28T13:56:54.137Z,48.90
2022-10-28T13:59:25.490Z,50.20
2022-10-28T14:02:07.553Z,49.30
2022-10-28T14:04:42.314Z,49.30
2022-10-28T14:07:22.072Z,50.10
2022-10-28T14:09:51.275Z,51.10
2022-10-28T14:12:20.254Z,51.30
2022-10-28T14:15:06.067Z,51.30
2022-10-28T14:17:38.102Z,51.50
2022-10-28T14:20:07.134Z,51.40
2022-10-28T14:22:36.906Z,51.70
2022-10-28T14:25:05.151Z,52.70
2022-10-28T14:27:42.636Z,52.30
2022-10-28T14:30:21.934Z,52.20
2022-10-28T14:33:16.376Z,52.50
2022-10-28T14:35:46.972Z,53.00
2022-10-28T14:38:21.352Z,53.30
2022-10-28T14:40:52.210Z,53.60
2022-10-28T14:43:30.534Z,52.70
2022-10-28T14:46:02.163Z,53.70
2022-10-28T14:48:46.160Z,54.50
2022-10-28T14:51:17.050Z,53.60
2022-10-28T14:53:49.913Z,54.30
2022-10-28T14:56:20.651Z,54.30
2022-10-28T14:58:54.590Z,54.10
2022-10-28T15:01:29.672Z,54.80
2022-10-28T15:04:03.338Z,54.70
2022-10-28T15:06:37.899Z,55.00
2022-10-28T15:09:09.885Z,54.50
2022-10-28T15:11:52.396Z,55.00
2022-10-28T15:14:39.092Z,55.10
2022-10-28T15:17:15.472Z,55.10
2022-10-28T15:19:44.626Z,56.20
2022-10-28T15:22:17.716Z,56.20
2022-10-28T15:24:58.207Z,57.30
2022-10-28T15:27:28.538Z,57.70
2022-10-28T15:30:00.204Z,58.20
2022-10-28T15:32:35.436Z,59.40
2022-10-28T15:35:24.406Z,59.00
2022-10-28T15:37:54.506Z,59.40
2022-10-28T15:48:18.022Z,60.50
2022-10-28T16:55:00.163Z,71.70
2022-10-28T17:00:57.790Z,71.70
2022-10-28T17:03:25.630Z,71.70
2022-10-28T17:05:53.502Z,71.80
2022-10-28T17:08:42.172Z,71.30
2022-10-28T17:11:09.942Z,71.80
2022-10-28T17:13:37.843Z,71.90
2022-10-28T17:16:07.470Z,72.10
2022-10-28T17:18:35.322Z,71.90
2022-10-28T17:44:07.014Z,72.90
2022-10-28T17:46:34.989Z,72.60
2022-10-28T18:08:01.769Z,73.00
2022-10-28T18:10:30.038Z,73.30
2022-10-28T18:13:02.761Z,73.30
2022-10-28T18:15:34.947Z,72.90
2022-10-28T18:18:03.055Z,73.50
2022-10-28T18:20:33.512Z,73.60
2022-10-28T18:23:08.988Z,73.70
2022-10-28T18:25:40.907Z,74.20
2022-10-28T18:28:08.983Z,73.20
2022-10-28T18:30:40.381Z,74.20
2022-10-28T18:33:24.862Z,74.80
2022-10-28T18:35:58.567Z,74.00
2022-10-28T18:38:31.038Z,73.20
2022-10-28T18:41:01.914Z,73.10
2022-10-28T18:43:29.999Z,72.20
2022-10-28T18:46:06.921Z,72.50
2022-10-28T18:48:39.636Z,72.30
2022-10-28T18:51:12.133Z,73.60
2022-10-28T18:53:41.890Z,74.40
2022-10-28T18:56:16.440Z,73.50
2022-10-28T18:58:56.337Z,74.00
2022-10-28T19:01:27.223Z,73.80
2022-10-28T19:03:55.593Z,73.90
2022-10-28T19:06:29.917Z,74.30
2022-10-28T19:09:04.966Z,74.80
2022-10-28T19:11:40.697Z,75.00
2022-10-28T19:14:14.257Z,75.50
2022-10-28T19:16:45.059Z,74.10
2022-10-28T19:19:13.046Z,75.50
2022-10-28T19:21:54.369Z,76.00
2022-10-28T19:24:28.726Z,75.50
2022-10-28T19:27:00.558Z,75.70
2022-10-28T19:29:28.970Z,75.60
2022-10-28T19:32:04.245Z,76.10
2022-10-28T19:34:45.289Z,75.30
2022-10-28T19:37:13.704Z,75.70
2022-10-28T19:39:47.605Z,75.50
2022-10-28T19:42:15.711Z,76.20
2022-10-28T19:44:55.672Z,76.30
2022-10-28T19:47:31.560Z,76.10
2022-10-28T19:50:07.243Z,75.70
2022-10-28T19:52:37.134Z,74.80
2022-10-28T19:55:14.507Z,75.20
2022-10-28T19:57:42.934Z,75.40
2022-10-28T20:00:11.407Z,75.20
2022-10-28T20:02:42.206Z,74.80
2022-10-28T20:05:10.538Z,74.30
2022-10-28T20:07:52.014Z,74.20
2022-10-28T20:10:31.119Z,74.50
2022-10-28T20:13:06.085Z,74.50
2022-10-28T20:15:34.072Z,74.20
2022-10-28T20:18:03.552Z,74.40
2022-10-28T20:20:33.353Z,75.00
2022-10-28T20:23:03.940Z,74.80
2022-10-28T20:25:35.366Z,74.30
2022-10-28T20:28:03.307Z,74.40
2022-10-28T20:30:31.255Z,74.60
2022-10-28T20:33:01.991Z,74.60
2022-10-28T20:35:31.501Z,74.20
2022-10-28T20:38:04.115Z,74.30
2022-10-28T20:40:43.140Z,75.30
2022-10-28T20:43:11.124Z,75.30
2022-10-28T20:45:39.169Z,75.60
2022-10-28T20:48:07.582Z,74.90
2022-10-28T20:50:35.594Z,75.60
2022-10-28T20:53:08.189Z,75.70
2022-10-28T20:55:37.557Z,76.70
2022-10-28T20:58:05.452Z,76.60
2022-10-28T21:00:33.523Z,76.50
2022-10-28T21:03:04.719Z,76.60
2022-10-28T21:05:35.737Z,75.70
2022-10-28T21:08:08.332Z,76.10
2022-10-28T21:10:37.882Z,75.40
2022-10-28T21:13:08.858Z,74.70
2022-10-28T21:15:37.091Z,74.20
2022-10-28T21:18:19.009Z,75.10
2022-10-28T21:20:49.867Z,75.40
2022-10-28T21:23:20.483Z,74.50
2022-10-28T21:25:54.318Z,74.90
2022-10-28T21:28:30.267Z,75.40
2022-10-28T21:31:07.947Z,75.90
2022-10-28T21:33:38.756Z,75.70
2022-10-28T21:36:07.493Z,75.70
2022-10-28T21:38:35.990Z,75.40
2022-10-28T21:41:10.953Z,76.30
2022-10-28T21:43:39.359Z,75.80
2022-10-28T21:46:07.274Z,75.90
2022-10-28T21:48:35.425Z,76.40
2022-10-28T21:51:07.236Z,75.70
2022-10-28T21:53:38.062Z,76.90
2022-10-28T21:56:09.146Z,76.50
2022-10-28T21:58:39.252Z,76.90
2022-10-28T22:01:07.611Z,76.20
2022-10-28T22:03:35.686Z,75.10
2022-10-28T22:06:03.759Z,74.90
2022-10-28T22:08:31.609Z,74.50
2022-10-28T22:11:00.612Z,74.70
2022-10-28T22:13:29.872Z,74.60
2022-10-28T22:15:58.735Z,75.90
2022-10-28T22:18:26.582Z,75.20
2022-10-28T22:20:54.456Z,75.30
2022-10-28T22:23:23.963Z,75.40
2022-10-28T22:25:51.846Z,75.90
2022-10-28T22:28:19.675Z,76.40
2022-10-28T22:30:48.953Z,76.40
2022-10-28T22:33:16.795Z,76.80
2022-10-28T22:35:44.701Z,76.20
2022-10-28T22:38:12.525Z,76.10
2022-10-28T22:40:40.407Z,76.30
2022-10-28T22:43:08.269Z,76.30
2022-10-28T22:45:36.159Z,75.30
2022-10-28T22:48:05.460Z,74.50
2022-10-28T22:50:33.350Z,75.10
2022-10-28T22:53:01.191Z,74.50
2022-10-28T22:55:29.079Z,75.40
2022-10-28T22:57:57.402Z,76.90
2022-10-28T23:00:25.585Z,76.30
2022-10-28T23:02:54.015Z,75.80
2022-10-28T23:05:23.479Z,74.60
2022-10-28T23:07:51.453Z,75.00
2022-10-28T23:10:19.357Z,75.40
2022-10-28T23:12:47.185Z,74.90
2022-10-28T23:15:15.076Z,74.90
2022-10-28T23:17:42.933Z,74.80
2022-10-28T23:20:11.472Z,76.70
2022-10-28T23:22:40.736Z,75.30
2022-10-28T23:25:09.391Z,75.60
2022-10-28T23:27:39.429Z,76.50
2022-10-28T23:30:07.955Z,76.90
2022-10-28T23:32:35.871Z,76.80
2022-10-28T23:35:03.817Z,76.40
2022-10-28T23:37:31.698Z,76.50
2022-10-28T23:40:01.009Z,76.70
2022-10-28T23:42:28.869Z,75.80
2022-10-28T23:44:56.773Z,76.10
2022-10-28T23:47:24.685Z,76.40
2022-10-28T23:49:52.929Z,76.90
2022-10-28T23:52:20.779Z,76.90
2022-10-28T23:54:48.661Z,75.40
2022-10-28T23:57:18.109Z,76.20
2022-10-28T23:59:46.010Z,75.70
